Time;durP1;ratioP1;P1;durP2;ratioP2;P2;SDS_P1;SDS_P2;PMS_P1;PMS_P2;Temp;Humidity;BMP_temperature;BMP_pressure;BME280_temperature;BME280_humidity;BME280_pressure;Samples;Min_cycle;Max_cycle;Signal;HPM_P1;HPM_P2
2024/01/20 00:00:57;;;;;;;13.25;4.35;;;-3.40;99.90;;;;;;5105809;28;20505;-67
2024/01/20 00:03:23;;;;;;;9.30;3.97;;;-3.40;99.90;;;;;;5113069;28;20044;-66
2024/01/20 00:05:48;;;;;;;9.48;4.18;;;-3.50;99.90;;;;;;5098785;28;20123;-66
2024/01/20 00:08:14;;;;;;;12.75;4.68;;;-3.50;99.90;;;;;;5109354;28;20075;-66
2024/01/20 00:10:40;;;;;;;9.68;4.95;;;-3.50;99.90;;;;;;5104920;28;20040;-66
2024/01/20 00:13:06;;;;;;;10.32;4.65;;;-3.50;99.90;;;;;;5110560;28;20042;-66
2024/01/20 00:15:32;;;;;;;13.75;4.75;;;-3.60;99.90;;;;;;5102912;28;20036;-66
2024/01/20 00:17:58;;;;;;;10.25;4.78;;;-3.60;99.90;;;;;;5096914;28;20093;-67
2024/01/20 00:20:23;;;;;;;11.63;4.75;;;-3.50;99.90;;;;;;5095821;28;20036;-66
2024/01/20 00:22:50;;;;;;;15.60;5.05;;;-3.50;99.90;;;;;;5085585;28;20048;-66
2024/01/20 00:25:15;;;;;;;10.20;4.43;;;-3.50;99.90;;;;;;5098486;28;20035;-67
2024/01/20 00:27:41;;;;;;;10.88;5.07;;;-3.50;99.90;;;;;;5088856;28;20396;-67
2024/01/20 00:30:07;;;;;;;13.48;5.28;;;-3.60;99.90;;;;;;5102688;28;20550;-67
2024/01/20 00:32:32;;;;;;;11.00;4.97;;;-3.60;99.90;;;;;;5078794;28;20040;-67
2024/01/20 00:34:58;;;;;;;12.90;5.40;;;-3.70;99.90;;;;;;5069409;28;20040;-67
2024/01/20 00:37:24;;;;;;;9.45;4.95;;;-3.70;99.90;;;;;;5071646;28;20055;-67
2024/01/20 00:39:49;;;;;;;11.52;4.45;;;-3.70;99.90;;;;;;5077202;28;20515;-67
2024/01/20 00:42:15;;;;;;;17.35;5.18;;;-3.80;99.90;;;;;;5075863;28;20033;-67
2024/01/20 00:44:41;;;;;;;15.45;5.22;;;-3.80;99.90;;;;;;5071961;28;20621;-67
2024/01/20 00:47:07;;;;;;;11.98;6.07;;;-3.70;99.90;;;;;;5070231;28;20041;-67
2024/01/20 00:49:32;;;;;;;14.88;6.22;;;-3.70;99.90;;;;;;5069242;28;20040;-67
2024/01/20 00:51:58;;;;;;;12.40;5.72;;;-3.70;99.90;;;;;;5061087;28;20442;-67
2024/01/20 00:54:24;;;;;;;11.60;5.35;;;-3.70;99.90;;;;;;5069977;28;20510;-67
2024/01/20 00:56:49;;;;;;;13.93;6.05;;;-3.70;99.90;;;;;;5074686;28;20146;-67
2024/01/20 00:59:15;;;;;;;13.38;5.75;;;-3.70;99.90;;;;;;5073707;28;20060;-67
2024/01/20 01:01:40;;;;;;;12.20;5.75;;;-3.70;99.90;;;;;;5062828;28;20045;-65
2024/01/20 01:04:06;;;;;;;9.38;5.65;;;-3.80;99.90;;;;;;5059262;28;20037;-65
2024/01/20 01:06:32;;;;;;;12.45;5.72;;;-3.70;99.90;;;;;;5060780;28;20040;-65
2024/01/20 01:08:57;;;;;;;14.05;5.78;;;-3.80;99.90;;;;;;5051986;28;20055;-65
2024/01/20 01:11:23;;;;;;;13.73;6.13;;;-3.70;99.90;;;;;;5057776;28;20036;-65
2024/01/20 01:13:48;;;;;;;9.73;5.65;;;-3.70;99.90;;;;;;5064997;28;20086;-65
2024/01/20 01:16:14;;;;;;;13.32;6.32;;;-3.80;99.90;;;;;;5066977;28;20045;-65
2024/01/20 01:18:40;;;;;;;9.43;5.45;;;-3.80;99.90;;;;;;5061191;28;20036;-65
2024/01/20 01:21:06;;;;;;;14.07;5.97;;;-3.80;99.90;;;;;;5057901;28;20048;-65
2024/01/20 01:23:31;;;;;;;15.55;6.32;;;-3.80;99.90;;;;;;5056825;28;20400;-65
2024/01/20 01:25:57;;;;;;;13.48;5.93;;;-3.80;99.90;;;;;;5060036;28;20140;-65
2024/01/20 01:28:23;;;;;;;15.65;6.28;;;-3.80;99.90;;;;;;5063611;28;20029;-65
2024/01/20 01:30:49;;;;;;;13.10;6.38;;;-3.90;99.90;;;;;;5061819;28;20040;-65
2024/01/20 01:33:14;;;;;;;14.68;6.40;;;-3.90;99.90;;;;;;5061839;28;20110;-65
2024/01/20 01:35:40;;;;;;;12.70;6.13;;;-3.90;99.90;;;;;;5064435;28;20400;-65
2024/01/20 01:38:05;;;;;;;14.82;6.45;;;-3.90;99.90;;;;;;5063158;28;20064;-65
2024/01/20 01:40:31;;;;;;;13.63;6.00;;;-3.80;99.90;;;;;;5063419;28;20048;-65
2024/01/20 01:42:57;;;;;;;14.73;5.80;;;-3.90;99.90;;;;;;5062944;28;20601;-65
2024/01/20 01:45:24;;;;;;;13.68;6.75;;;-3.90;99.90;;;;;;5065827;28;20055;-65
2024/01/20 01:47:51;;;;;;;11.30;5.60;;;-3.90;99.90;;;;;;5062431;28;20057;-65
2024/01/20 01:50:18;;;;;;;15.05;5.43;;;-3.90;99.90;;;;;;5050893;28;20416;-65
2024/01/20 01:52:45;;;;;;;14.68;5.82;;;-3.90;99.90;;;;;;5065466;28;20492;-64
2024/01/20 01:55:11;;;;;;;12.27;5.18;;;-3.90;99.90;;;;;;5062468;28;20037;-65
2024/01/20 01:57:38;;;;;;;16.20;7.03;;;-3.90;99.90;;;;;;5056169;28;20080;-65
2024/01/20 02:00:04;;;;;;;14.77;5.93;;;-4.00;99.90;;;;;;5051051;28;20041;-65
2024/01/20 02:02:30;;;;;;;14.40;6.00;;;-4.00;99.90;;;;;;5064078;28;20044;-65
2024/01/20 02:04:56;;;;;;;14.57;6.00;;;-4.10;99.90;;;;;;5052737;28;20492;-65
2024/01/20 02:07:21;;;;;;;12.07;6.03;;;-4.10;99.90;;;;;;5062108;28;20040;-65
2024/01/20 02:09:47;;;;;;;14.55;5.95;;;-4.00;99.90;;;;;;5059820;28;20047;-64
2024/01/20 02:12:14;;;;;;;10.10;5.72;;;-4.00;99.90;;;;;;5060391;28;20645;-65
2024/01/20 02:14:44;;;;;;;15.38;5.93;;;-4.00;99.90;;;;;;5063034;28;20047;-65
2024/01/20 02:17:10;;;;;;;10.48;5.28;;;-4.00;99.90;;;;;;5051081;28;20048;-65
2024/01/20 02:19:40;;;;;;;13.52;5.57;;;-3.90;99.90;;;;;;5054252;28;20501;-65
2024/01/20 02:22:15;;;;;;;13.52;5.60;;;-3.80;99.90;;;;;;5063008;28;20089;-65
2024/01/20 02:24:47;;;;;;;17.00;6.40;;;-3.80;99.90;;;;;;5058547;28;20128;-65
2024/01/20 02:27:12;;;;;;;10.65;5.82;;;-3.90;99.90;;;;;;5060363;28;20094;-65
2024/01/20 02:29:39;;;;;;;13.27;5.13;;;-3.90;99.90;;;;;;5065735;28;20075;-65
2024/01/20 02:32:05;;;;;;;13.77;5.55;;;-3.90;99.90;;;;;;5090196;28;20039;-65
2024/01/20 02:34:31;;;;;;;9.40;5.60;;;-3.90;99.90;;;;;;5097631;28;20051;-64
2024/01/20 02:36:57;;;;;;;14.55;6.03;;;-3.90;99.90;;;;;;5093128;28;20093;-65
2024/01/20 02:39:22;;;;;;;12.88;5.20;;;-3.90;99.90;;;;;;5101675;28;20073;-64
2024/01/20 02:41:48;;;;;;;11.75;5.65;;;-3.90;99.90;;;;;;5100360;28;20123;-65
2024/01/20 02:44:14;;;;;;;18.40;5.88;;;-3.80;99.90;;;;;;5086176;28;20039;-64
2024/01/20 02:46:39;;;;;;;14.55;4.75;;;-3.80;99.90;;;;;;5093186;28;20105;-65
2024/01/20 02:49:05;;;;;;;13.23;5.35;;;-3.80;99.90;;;;;;5083919;28;20101;-64
2024/01/20 02:51:30;;;;;;;13.95;5.45;;;-3.90;99.90;;;;;;5086687;28;20419;-65
2024/01/20 02:53:57;;;;;;;13.82;6.35;;;-3.90;99.90;;;;;;5093305;28;20409;-65
2024/01/20 02:56:24;;;;;;;13.85;5.68;;;-3.80;99.90;;;;;;5099133;28;20115;-65
2024/01/20 02:58:50;;;;;;;10.80;5.43;;;-3.80;99.90;;;;;;5094262;28;20132;-64
2024/01/20 03:01:15;;;;;;;10.05;5.35;;;-3.80;99.90;;;;;;5085410;28;20032;-65
2024/01/20 03:03:41;;;;;;;15.32;6.07;;;-3.80;99.90;;;;;;5100297;28;20084;-65
2024/01/20 03:06:07;;;;;;;11.50;5.70;;;-3.80;99.90;;;;;;5093020;28;20040;-65
2024/01/20 03:08:32;;;;;;;10.52;5.25;;;-3.80;99.90;;;;;;5093367;28;20051;-65
2024/01/20 03:10:58;;;;;;;11.57;5.10;;;-3.80;99.90;;;;;;5084412;28;20044;-65
2024/01/20 03:13:23;;;;;;;12.57;5.57;;;-3.70;99.90;;;;;;5079750;28;20044;-65
2024/01/20 03:15:49;;;;;;;19.63;6.32;;;-3.80;99.90;;;;;;5087413;28;20044;-66
2024/01/20 03:18:14;;;;;;;12.50;5.85;;;-3.70;99.90;;;;;;5088288;28;20033;-66
2024/01/20 03:20:40;;;;;;;14.00;4.93;;;-3.60;99.90;;;;;;5087419;28;20040;-66
2024/01/20 03:23:06;;;;;;;21.23;5.93;;;-3.60;99.90;;;;;;5090395;28;20088;-66
2024/01/20 03:25:32;;;;;;;13.30;6.00;;;-3.60;99.90;;;;;;5091024;28;20040;-65
2024/01/20 03:27:57;;;;;;;12.20;5.25;;;-3.60;99.90;;;;;;5091756;28;20040;-65
2024/01/20 03:30:23;;;;;;;15.48;5.93;;;-3.60;99.90;;;;;;5084368;28;20612;-66
2024/01/20 03:32:51;;;;;;;15.68;7.10;;;-3.60;99.90;;;;;;5091873;28;20118;-66
2024/01/20 03:35:16;;;;;;;15.93;5.65;;;-3.70;99.90;;;;;;5086868;28;20503;-65
2024/01/20 03:37:42;;;;;;;10.15;5.05;;;-3.70;99.90;;;;;;5085489;28;20033;-65
2024/01/20 03:40:08;;;;;;;13.05;5.15;;;-3.70;99.90;;;;;;5090632;28;20040;-66
2024/01/20 03:42:34;;;;;;;13.38;5.22;;;-3.70;99.90;;;;;;5092900;28;20502;-66
2024/01/20 03:44:59;;;;;;;12.57;5.50;;;-3.70;99.90;;;;;;5092287;28;20064;-65
2024/01/20 03:47:25;;;;;;;12.93;5.40;;;-3.60;99.90;;;;;;5079771;28;20048;-65
2024/01/20 03:49:50;;;;;;;15.75;5.47;;;-3.60;99.90;;;;;;5093038;28;20066;-65
2024/01/20 03:52:16;;;;;;;14.40;5.00;;;-3.50;99.90;;;;;;5079420;28;20039;-65
2024/01/20 03:54:42;;;;;;;12.65;4.78;;;-3.60;99.90;;;;;;5100989;28;20055;-65
2024/01/20 03:57:08;;;;;;;18.13;5.90;;;-3.60;99.90;;;;;;5095546;28;20047;-65
2024/01/20 03:59:33;;;;;;;11.50;4.90;;;-3.60;99.90;;;;;;5099825;28;20043;-65
2024/01/20 04:01:59;;;;;;;12.63;5.07;;;-3.50;99.90;;;;;;5098203;28;20040;-65
2024/01/20 04:04:24;;;;;;;9.02;4.35;;;-3.40;99.90;;;;;;5102124;27;20040;-65
2024/01/20 04:06:50;;;;;;;10.23;4.03;;;-3.40;99.90;;;;;;5092631;28;20090;-65
2024/01/20 04:09:15;;;;;;;10.88;4.60;;;-3.40;99.90;;;;;;5099380;28;20151;-65
2024/01/20 04:11:41;;;;;;;12.65;4.18;;;-3.40;99.90;;;;;;5097477;28;20039;-65
2024/01/20 04:14:06;;;;;;;16.35;5.43;;;-3.40;99.90;;;;;;5095421;28;20059;-65
2024/01/20 04:16:32;;;;;;;11.68;4.75;;;-3.40;99.90;;;;;;5093766;28;20039;-65
2024/01/20 04:18:58;;;;;;;10.45;4.80;;;-3.50;99.90;;;;;;5092736;28;20039;-65
2024/01/20 04:21:25;;;;;;;11.18;5.60;;;-3.40;99.90;;;;;;5097331;28;20063;-66
2024/01/20 04:23:50;;;;;;;8.45;4.10;;;-3.40;99.90;;;;;;5093365;28;20075;-66
2024/01/20 04:26:16;;;;;;;12.10;5.05;;;-3.40;99.90;;;;;;5096874;28;20067;-66
2024/01/20 04:28:42;;;;;;;11.50;4.75;;;-3.40;99.90;;;;;;5096639;28;20078;-66
2024/01/20 04:31:08;;;;;;;12.55;4.60;;;-3.40;99.90;;;;;;5096864;28;20031;-66
2024/01/20 04:33:36;;;;;;;9.73;5.10;;;-3.50;99.90;;;;;;5095764;28;20078;-66
2024/01/20 04:36:02;;;;;;;11.82;5.03;;;-3.40;99.90;;;;;;5099702;28;20047;-66
2024/01/20 04:38:28;;;;;;;14.35;5.35;;;-3.30;99.90;;;;;;5088667;28;20137;-66
2024/01/20 04:40:53;;;;;;;12.95;5.45;;;-3.30;99.90;;;;;;5095167;28;20065;-66
2024/01/20 04:43:19;;;;;;;11.77;5.05;;;-3.30;99.90;;;;;;5090461;28;20495;-65
2024/01/20 04:45:45;;;;;;;10.13;4.55;;;-3.30;99.90;;;;;;5093902;28;20047;-65
2024/01/20 04:48:11;;;;;;;10.38;4.75;;;-3.30;99.90;;;;;;5088121;28;20141;-66
2024/01/20 04:50:36;;;;;;;15.80;5.43;;;-3.30;99.90;;;;;;5083195;28;20040;-66
2024/01/20 04:53:02;;;;;;;17.10;4.63;;;-3.30;99.90;;;;;;5089401;28;20039;-65
2024/01/20 04:55:27;;;;;;;19.67;4.90;;;-3.30;99.90;;;;;;5091897;28;20037;-65
2024/01/20 04:57:53;;;;;;;14.95;5.35;;;-3.40;99.90;;;;;;5087792;28;20055;-65
2024/01/20 05:00:19;;;;;;;14.73;4.95;;;-3.40;99.90;;;;;;5082893;28;20463;-65
2024/01/20 05:02:44;;;;;;;16.02;5.32;;;-3.50;99.90;;;;;;5099179;28;20063;-65
2024/01/20 05:05:10;;;;;;;12.50;4.85;;;-3.40;99.90;;;;;;5091592;28;20032;-65
2024/01/20 05:07:35;;;;;;;12.90;5.43;;;-3.40;99.90;;;;;;5094623;28;20069;-66
2024/01/20 05:10:01;;;;;;;12.75;5.28;;;-3.30;99.90;;;;;;5095995;28;20123;-65
2024/01/20 05:12:28;;;;;;;10.10;5.10;;;-3.30;99.90;;;;;;5088277;28;20514;-66
2024/01/20 05:14:53;;;;;;;8.65;3.92;;;-3.30;99.90;;;;;;5093088;28;20128;-65
2024/01/20 05:17:19;;;;;;;15.45;5.13;;;-3.30;99.90;;;;;;5088216;28;20499;-65
2024/01/20 05:19:45;;;;;;;13.38;4.78;;;-3.40;99.90;;;;;;5095788;28;20086;-66
2024/01/20 05:22:10;;;;;;;13.27;4.65;;;-3.40;99.90;;;;;;5083282;28;20451;-65
2024/01/20 05:24:36;;;;;;;11.88;5.20;;;-3.30;99.90;;;;;;5086145;28;20059;-66
2024/01/20 05:27:02;;;;;;;15.50;5.90;;;-3.30;99.90;;;;;;5094544;28;20039;-66
2024/01/20 05:29:27;;;;;;;14.32;5.18;;;-3.40;99.90;;;;;;5087810;28;20043;-65
2024/01/20 05:31:53;;;;;;;16.60;5.10;;;-3.30;99.90;;;;;;5088529;28;20835;-66
2024/01/20 05:34:18;;;;;;;10.85;5.00;;;-3.30;99.90;;;;;;5075150;28;20788;-65
2024/01/20 05:36:44;;;;;;;9.27;4.55;;;-3.30;99.90;;;;;;5077860;28;20040;-65
2024/01/20 05:39:09;;;;;;;12.40;4.22;;;-3.30;99.90;;;;;;5074572;28;20024;-65
2024/01/20 05:41:35;;;;;;;13.75;4.72;;;-3.30;99.90;;;;;;5075728;28;20036;-65
2024/01/20 05:44:02;;;;;;;15.60;4.95;;;-3.40;99.90;;;;;;5075113;28;20036;-65
2024/01/20 05:46:28;;;;;;;13.60;4.80;;;-3.40;99.90;;;;;;5076369;28;20055;-66
2024/01/20 05:48:53;;;;;;;11.75;4.65;;;-3.40;99.90;;;;;;5074844;28;20032;-65
2024/01/20 05:51:19;;;;;;;11.00;5.03;;;-3.30;99.90;;;;;;5076249;28;20047;-66
2024/01/20 05:53:45;;;;;;;15.27;4.38;;;-3.30;99.90;;;;;;5077333;28;20044;-66
2024/01/20 05:56:11;;;;;;;9.05;4.15;;;-3.30;99.90;;;;;;5076362;28;20173;-65
2024/01/20 05:58:36;;;;;;;21.10;4.90;;;-3.30;99.90;;;;;;5073766;28;20135;-67
2024/01/20 06:01:02;;;;;;;12.43;5.75;;;-3.30;99.90;;;;;;5070437;28;20044;-65
2024/01/20 06:03:28;;;;;;;12.52;4.50;;;-3.40;99.90;;;;;;5065533;28;20162;-65
2024/01/20 06:05:54;;;;;;;10.30;4.57;;;-3.40;99.90;;;;;;5063340;28;20044;-65
2024/01/20 06:08:19;;;;;;;12.70;4.38;;;-3.40;99.90;;;;;;5061741;28;20032;-65
2024/01/20 06:10:45;;;;;;;7.45;3.53;;;-3.30;99.90;;;;;;5059106;28;20169;-65
2024/01/20 06:13:10;;;;;;;11.88;3.90;;;-3.40;99.90;;;;;;5066341;28;20071;-65
2024/01/20 06:15:36;;;;;;;9.80;4.55;;;-3.40;99.90;;;;;;5058639;28;20396;-66
2024/01/20 06:18:02;;;;;;;9.02;4.35;;;-3.30;99.90;;;;;;5054112;28;20036;-66
2024/01/20 06:20:28;;;;;;;14.73;4.40;;;-3.30;99.90;;;;;;5064498;28;20045;-65
2024/01/20 06:22:53;;;;;;;8.40;3.80;;;-3.30;99.90;;;;;;5065561;28;20043;-66
2024/01/20 06:25:19;;;;;;;11.05;4.32;;;-3.40;99.90;;;;;;5062093;28;20499;-66
2024/01/20 06:27:44;;;;;;;24.92;4.60;;;-3.40;99.90;;;;;;5065580;28;20044;-65
2024/01/20 06:30:10;;;;;;;9.95;4.55;;;-3.40;99.90;;;;;;5064378;28;20136;-67
2024/01/20 06:32:36;;;;;;;11.00;3.92;;;-3.40;99.90;;;;;;5060257;28;20063;-64
2024/01/20 06:35:02;;;;;;;10.82;4.72;;;-3.40;99.90;;;;;;5064480;28;20500;-66
2024/01/20 06:37:28;;;;;;;9.75;4.10;;;-3.40;99.90;;;;;;5062149;28;20052;-67
2024/01/20 06:39:53;;;;;;;13.65;4.43;;;-3.40;99.90;;;;;;5063909;28;20028;-66
2024/01/20 06:42:19;;;;;;;12.45;5.10;;;-3.40;99.90;;;;;;5062784;28;20062;-67
2024/01/20 06:44:44;;;;;;;10.00;4.05;;;-3.40;99.90;;;;;;5062410;28;20646;-68
2024/01/20 06:47:11;;;;;;;11.25;4.63;;;-3.50;99.90;;;;;;5063494;28;20067;-65
2024/01/20 06:49:40;;;;;;;10.63;4.22;;;-3.40;99.90;;;;;;5062856;28;20052;-67
2024/01/20 06:52:06;;;;;;;16.98;4.43;;;-3.40;99.90;;;;;;5063160;28;20115;-67
2024/01/20 06:54:32;;;;;;;9.95;3.78;;;-3.40;99.90;;;;;;5057082;28;20177;-68
2024/01/20 06:56:57;;;;;;;16.55;6.03;;;-3.40;99.90;;;;;;5058004;28;20127;-65
2024/01/20 06:59:23;;;;;;;21.50;8.10;;;-3.40;99.90;;;;;;5059102;28;20127;-66
2024/01/20 07:01:48;;;;;;;26.60;9.43;;;-3.40;99.90;;;;;;5061186;28;20040;-66
2024/01/20 07:04:14;;;;;;;14.43;5.60;;;-3.40;99.90;;;;;;5065458;28;20024;-68
2024/01/20 07:06:39;;;;;;;12.68;5.95;;;-3.40;99.90;;;;;;5058228;28;20044;-66
2024/01/20 07:09:05;;;;;;;14.30;5.38;;;-3.40;99.90;;;;;;5059199;28;20043;-67
2024/01/20 07:11:34;;;;;;;9.82;4.78;;;-3.40;99.90;;;;;;5060832;28;20101;-68
2024/01/20 07:14:00;;;;;;;13.25;4.63;;;-3.40;99.90;;;;;;5060162;28;20365;-66
2024/01/20 07:16:26;;;;;;;16.08;5.05;;;-3.40;99.90;;;;;;5062044;28;20043;-66
2024/01/20 07:18:52;;;;;;;26.13;9.95;;;-3.40;99.90;;;;;;5065563;28;20040;-66
2024/01/20 07:21:18;;;;;;;23.38;8.45;;;-3.30;99.90;;;;;;5062910;28;20045;-65
2024/01/20 07:23:44;;;;;;;22.55;7.40;;;-3.40;99.90;;;;;;5065657;28;20116;-65
2024/01/20 07:26:09;;;;;;;20.70;5.93;;;-3.40;99.90;;;;;;5060705;28;20151;-65
2024/01/20 07:28:35;;;;;;;13.65;4.95;;;-3.40;99.90;;;;;;5065274;28;20148;-65
2024/01/20 07:31:00;;;;;;;12.52;4.22;;;-3.40;99.90;;;;;;5068031;28;20471;-65
2024/01/20 07:33:26;;;;;;;12.10;4.82;;;-3.40;99.90;;;;;;5068977;28;20590;-65
2024/01/20 07:35:51;;;;;;;11.98;4.60;;;-3.40;99.90;;;;;;5068153;28;20490;-65
2024/01/20 07:38:17;;;;;;;10.07;4.03;;;-3.40;99.90;;;;;;5065739;28;20696;-65
2024/01/20 07:40:42;;;;;;;12.65;4.30;;;-3.40;99.90;;;;;;5067287;28;20037;-66
2024/01/20 07:43:08;;;;;;;11.77;3.80;;;-3.40;99.90;;;;;;5061275;28;20044;-66
2024/01/20 07:45:34;;;;;;;12.38;4.80;;;-3.40;99.90;;;;;;5063949;28;20068;-65
2024/01/20 07:48:00;;;;;;;12.10;4.32;;;-3.40;99.90;;;;;;5060660;28;20036;-65
2024/01/20 07:50:25;;;;;;;11.02;3.97;;;-3.40;99.90;;;;;;5060053;28;20496;-66
2024/01/20 07:52:51;;;;;;;10.85;4.22;;;-3.30;99.90;;;;;;5051362;28;20520;-66
2024/01/20 07:55:17;;;;;;;12.82;3.83;;;-3.30;99.90;;;;;;5068017;28;20127;-66
2024/01/20 07:57:42;;;;;;;16.85;4.15;;;-3.30;99.90;;;;;;5062350;28;20496;-65
2024/01/20 08:00:10;;;;;;;17.50;4.85;;;-3.20;99.90;;;;;;5067689;28;20667;-65
2024/01/20 08:02:39;;;;;;;16.15;4.80;;;-3.20;99.90;;;;;;5093708;28;20047;-65
2024/01/20 08:05:05;;;;;;;14.50;4.95;;;-3.20;99.90;;;;;;5085684;28;20036;-65
2024/01/20 08:07:34;;;;;;;11.82;4.00;;;-3.10;99.90;;;;;;5087591;28;20048;-65
2024/01/20 08:10:00;;;;;;;16.58;4.90;;;-3.00;99.90;;;;;;5093983;27;20036;-66
2024/01/20 08:12:25;;;;;;;11.23;3.60;;;-3.10;99.90;;;;;;5092296;28;20127;-64
2024/01/20 08:14:51;;;;;;;19.27;6.13;;;-3.00;99.90;;;;;;5092830;28;20075;-67
2024/01/20 08:17:17;;;;;;;7.68;3.35;;;-3.00;99.90;;;;;;5088895;28;20044;-71
2024/01/20 08:19:43;;;;;;;9.05;3.72;;;-2.90;99.90;;;;;;5083103;28;20061;-72
2024/01/20 08:22:08;;;;;;;10.90;3.47;;;-2.90;99.90;;;;;;5085656;28;20058;-73
2024/01/20 08:24:34;;;;;;;9.05;3.30;;;-2.80;99.90;;;;;;5091348;28;20341;-72
2024/01/20 08:27:03;;;;;;;6.95;3.33;;;-2.70;99.90;;;;;;5100633;28;20086;-70
2024/01/20 08:29:28;;;;;;;10.07;4.30;;;-2.70;99.90;;;;;;5085641;28;20089;-73
2024/01/20 08:31:57;;;;;;;4.00;2.42;;;-2.50;99.90;;;;;;5084225;28;20028;-69
2024/01/20 08:34:34;;;;;;;8.95;3.55;;;-2.40;99.90;;;;;;5081342;28;20687;-68
2024/01/20 08:37:08;;;;;;;8.70;3.08;;;-2.30;99.90;;;;;;5083067;28;20051;-66
2024/01/20 08:39:39;;;;;;;9.82;2.85;;;-2.20;99.90;;;;;;5081315;28;20067;-66
2024/01/20 08:42:13;;;;;;;8.77;2.40;;;-2.00;99.90;;;;;;5077351;28;20040;-67
2024/01/20 08:44:42;;;;;;;35.20;11.07;;;-1.80;99.90;;;;;;5085881;28;20059;-67
2024/01/20 08:47:11;;;;;;;17.90;6.90;;;-1.70;99.90;;;;;;5076116;28;20036;-66
2024/01/20 08:49:39;;;;;;;13.85;4.10;;;-1.60;99.90;;;;;;5086413;28;20036;-66
2024/01/20 08:52:16;;;;;;;8.32;2.88;;;-1.40;99.90;;;;;;5085476;28;20050;-66
2024/01/20 08:54:44;;;;;;;8.02;2.88;;;-1.30;99.90;;;;;;5079316;28;20041;-66
2024/01/20 08:57:16;;;;;;;14.02;5.00;;;-1.20;99.90;;;;;;5096642;28;20047;-69
2024/01/20 08:59:42;;;;;;;8.10;3.10;;;-1.10;99.90;;;;;;5094869;28;20040;-68
2024/01/20 09:02:12;;;;;;;10.70;2.40;;;-0.90;99.90;;;;;;5086536;28;20090;-68
2024/01/20 09:04:43;;;;;;;10.27;1.83;;;-0.80;99.90;;;;;;5087379;28;20180;-67
2024/01/20 09:07:12;;;;;;;4.68;1.73;;;-0.60;99.90;;;;;;5104047;28;20040;-67
2024/01/20 09:09:41;;;;;;;6.68;1.77;;;-0.50;99.90;;;;;;5104059;28;20039;-67
2024/01/20 09:12:07;;;;;;;4.07;1.48;;;-0.30;99.90;;;;;;5081690;28;20495;-67
2024/01/20 09:14:41;;;;;;;5.10;1.58;;;-0.20;99.90;;;;;;5084947;28;20063;-67
2024/01/20 09:17:14;;;;;;;7.20;1.75;;;-0.10;99.90;;;;;;5093776;28;20040;-67
2024/01/20 09:19:47;;;;;;;4.95;1.63;;;0.00;99.90;;;;;;5097132;28;20044;-67
2024/01/20 09:22:16;;;;;;;4.68;1.65;;;0.10;99.90;;;;;;5099513;28;20202;-68
2024/01/20 09:24:47;;;;;;;6.45;1.67;;;0.20;99.90;;;;;;5094371;28;20040;-67
2024/01/20 09:27:17;;;;;;;2.03;1.10;;;0.30;99.90;;;;;;5082711;28;20047;-67
2024/01/20 09:29:56;;;;;;;5.22;1.60;;;0.40;99.90;;;;;;5086032;28;20084;-67
2024/01/20 09:32:22;;;;;;;5.80;1.58;;;0.50;99.90;;;;;;5067754;28;20068;-67
2024/01/20 09:34:51;;;;;;;7.40;2.00;;;0.60;99.90;;;;;;5097284;28;20059;-67
2024/01/20 09:37:19;;;;;;;5.45;1.67;;;0.60;99.90;;;;;;5089950;28;20045;-67
2024/01/20 09:39:45;;;;;;;4.82;1.50;;;0.60;99.90;;;;;;5084472;28;20502;-67
2024/01/20 09:42:11;;;;;;;5.50;1.77;;;0.60;99.90;;;;;;5096132;28;20055;-67
2024/01/20 09:44:37;;;;;;;7.88;2.17;;;0.60;99.90;;;;;;5099558;28;20048;-67
2024/01/20 09:47:03;;;;;;;6.47;1.67;;;0.60;99.90;;;;;;5091875;28;20108;-68
2024/01/20 09:49:29;;;;;;;7.05;1.80;;;0.50;99.90;;;;;;5082375;28;20125;-68
2024/01/20 09:52:03;;;;;;;11.63;2.08;;;0.40;99.90;;;;;;5079159;28;20040;-67
2024/01/20 09:54:30;;;;;;;7.97;1.90;;;0.20;99.90;;;;;;5087437;28;20096;-67
2024/01/20 09:56:56;;;;;;;11.43;1.80;;;0.20;99.90;;;;;;5081913;28;20078;-67
2024/01/20 09:59:23;;;;;;;5.47;2.22;;;0.30;99.90;;;;;;5087419;28;20080;-67
2024/01/20 10:01:51;;;;;;;7.43;2.42;;;0.30;99.90;;;;;;5085465;28;20043;-67
2024/01/20 10:04:19;;;;;;;5.95;1.63;;;0.40;99.90;;;;;;5092231;28;20043;-67
2024/01/20 10:06:44;;;;;;;5.32;1.90;;;0.50;99.90;;;;;;5079774;28;20618;-67
2024/01/20 10:09:10;;;;;;;3.92;1.80;;;0.60;99.90;;;;;;5084253;28;20039;-68
2024/01/20 10:11:36;;;;;;;4.05;1.50;;;0.70;99.90;;;;;;5086190;28;20043;-67
2024/01/20 10:14:01;;;;;;;6.28;1.58;;;0.90;99.90;;;;;;5098150;28;20044;-67
2024/01/20 10:16:37;;;;;;;4.75;1.58;;;1.00;99.90;;;;;;5087417;28;20046;-67
2024/01/20 10:19:02;;;;;;;2.47;1.52;;;1.20;99.90;;;;;;5086188;28;20032;-67
2024/01/20 10:21:28;;;;;;;9.00;1.90;;;1.20;99.90;;;;;;5082687;28;20040;-67
2024/01/20 10:23:54;;;;;;;5.13;1.80;;;1.30;99.90;;;;;;5093279;28;20452;-66
2024/01/20 10:26:19;;;;;;;9.30;1.50;;;1.40;99.90;;;;;;5098495;28;20486;-66
2024/01/20 10:28:45;;;;;;;6.63;1.30;;;1.50;99.90;;;;;;5089703;28;20051;-66
2024/01/20 10:31:10;;;;;;;5.50;1.92;;;1.60;99.90;;;;;;5093850;28;20666;-67
2024/01/20 10:33:36;;;;;;;2.65;1.27;;;1.60;99.90;;;;;;5087259;28;20039;-67
2024/01/20 10:36:03;;;;;;;4.57;1.88;;;1.60;99.90;;;;;;5098517;28;20042;-67
2024/01/20 10:38:33;;;;;;;7.47;1.27;;;1.70;99.90;;;;;;5103596;28;20040;-67
2024/01/20 10:41:00;;;;;;;4.65;1.38;;;1.80;99.90;;;;;;5093566;28;20057;-67
2024/01/20 10:43:28;;;;;;;3.88;1.30;;;1.80;99.90;;;;;;5093891;28;20043;-67
2024/01/20 10:46:04;;;;;;;7.70;1.30;;;1.80;99.90;;;;;;5087515;28;20063;-67
2024/01/20 10:48:36;;;;;;;3.83;1.42;;;1.90;99.90;;;;;;5084865;28;20403;-68
2024/01/20 10:51:07;;;;;;;5.40;1.45;;;2.00;99.90;;;;;;5088372;28;20039;-67
2024/01/20 10:53:32;;;;;;;9.52;1.60;;;2.10;99.90;;;;;;5102137;28;20138;-67
2024/01/20 10:55:59;;;;;;;5.13;1.45;;;2.00;99.90;;;;;;5077445;28;20127;-67
2024/01/20 10:58:32;;;;;;;5.18;1.98;;;1.90;99.90;;;;;;5087960;28;20046;-67
2024/01/20 11:00:58;;;;;;;12.00;3.35;;;1.80;99.90;;;;;;5083658;28;21005;-67
2024/01/20 11:03:24;;;;;;;2.15;1.17;;;1.90;99.90;;;;;;5080103;28;20105;-67
2024/01/20 11:05:50;;;;;;;3.38;1.20;;;2.10;99.90;;;;;;5094982;28;20095;-67
2024/01/20 11:08:24;;;;;;;3.53;1.30;;;2.20;99.90;;;;;;5099591;28;20126;-67
2024/01/20 11:10:52;;;;;;;2.70;1.25;;;2.30;99.90;;;;;;5088242;28;20104;-67
2024/01/20 11:13:17;;;;;;;3.10;1.23;;;2.30;99.90;;;;;;5094292;28;20052;-67
2024/01/20 11:15:49;;;;;;;3.92;0.90;;;2.30;99.90;;;;;;5095756;28;20116;-67
2024/01/20 11:18:16;;;;;;;5.22;1.95;;;2.20;99.90;;;;;;5086128;28;20036;-67
2024/01/20 11:21:02;;;;;;;3.90;0.98;;;2.30;99.90;;;;;;5086848;28;20048;-66
2024/01/20 11:23:28;;;;;;;5.55;1.10;;;2.20;99.90;;;;;;5080504;28;20411;-67
2024/01/20 11:25:55;;;;;;;1.42;0.90;;;2.30;99.90;;;;;;5086966;28;20143;-67
2024/01/20 11:28:33;;;;;;;7.72;1.30;;;2.30;99.90;;;;;;5082094;28;20048;-67
2024/01/20 11:31:00;;;;;;;7.50;1.10;;;2.30;99.90;;;;;;5084308;28;20044;-67
2024/01/20 11:33:26;;;;;;;5.50;1.10;;;2.30;99.90;;;;;;5081945;28;20891;-67
2024/01/20 11:35:52;;;;;;;2.70;1.13;;;2.30;99.90;;;;;;5084692;28;20040;-67
2024/01/20 11:38:18;;;;;;;2.38;1.02;;;2.30;99.90;;;;;;5088489;28;20727;-67
2024/01/20 11:40:44;;;;;;;1.65;1.23;;;2.20;99.90;;;;;;5087582;28;20036;-66
2024/01/20 11:43:11;;;;;;;3.70;0.77;;;2.10;99.90;;;;;;5085862;28;20055;-67
2024/01/20 11:45:38;;;;;;;3.30;1.35;;;2.20;99.90;;;;;;5078195;28;20056;-67
2024/01/20 11:48:04;;;;;;;1.48;0.80;;;2.10;99.90;;;;;;5081169;28;20036;-67
2024/01/20 11:50:29;;;;;;;3.90;1.17;;;2.10;99.90;;;;;;5086526;28;20035;-67
2024/01/20 11:52:55;;;;;;;2.20;0.90;;;2.10;99.90;;;;;;5082026;28;20553;-67
2024/01/20 11:55:20;;;;;;;2.78;1.20;;;2.20;99.90;;;;;;5081973;28;20093;-67
2024/01/20 11:57:46;;;;;;;1.52;0.77;;;2.30;99.90;;;;;;5090181;28;20048;-67
2024/01/20 12:00:14;;;;;;;3.05;1.00;;;2.20;99.90;;;;;;5087531;28;20047;-67
2024/01/20 12:02:46;;;;;;;4.07;1.00;;;2.30;99.90;;;;;;5083475;28;20070;-67
2024/01/20 12:05:11;;;;;;;1.98;0.80;;;2.30;99.90;;;;;;5082365;28;20036;-67
2024/01/20 12:07:37;;;;;;;2.33;0.70;;;2.40;99.90;;;;;;5081607;28;20094;-67
2024/01/20 12:10:02;;;;;;;2.22;1.05;;;2.40;99.90;;;;;;5089961;28;20031;-67
2024/01/20 12:12:28;;;;;;;2.25;0.70;;;2.50;99.90;;;;;;5087291;28;20506;-67
2024/01/20 12:14:55;;;;;;;1.80;1.02;;;2.50;99.90;;;;;;5096366;28;20032;-68
2024/01/20 12:17:22;;;;;;;2.45;0.85;;;2.50;99.90;;;;;;5090741;28;20123;-67
2024/01/20 12:19:48;;;;;;;1.65;0.80;;;2.60;99.90;;;;;;5090301;28;20044;-67
2024/01/20 12:22:14;;;;;;;1.98;0.65;;;2.70;99.90;;;;;;5090334;28;20123;-67
2024/01/20 12:24:48;;;;;;;1.40;0.70;;;2.70;99.90;;;;;;5098988;28;20046;-67
2024/01/20 12:27:15;;;;;;;3.95;0.80;;;2.70;99.90;;;;;;5100331;28;20120;-66
2024/01/20 12:29:41;;;;;;;0.70;0.43;;;2.70;99.90;;;;;;5103506;28;20437;-67
2024/01/20 12:32:07;;;;;;;2.90;0.60;;;2.60;99.90;;;;;;5089672;28;20039;-67
2024/01/20 12:34:33;;;;;;;0.80;0.35;;;2.60;99.90;;;;;;5095697;28;20100;-67
2024/01/20 12:36:59;;;;;;;0.82;0.40;;;2.60;99.90;;;;;;5099331;28;20414;-67
2024/01/20 12:39:25;;;;;;;2.03;0.60;;;2.60;99.90;;;;;;5102800;28;20043;-67